Time;durP1;ratioP1;P1;durP2;ratioP2;P2;SDS_P1;SDS_P2;PMS_P1;PMS_P2;Temp;Humidity;BMP_temperature;BMP_pressure;BME280_temperature;BME280_humidity;BME280_pressure;Samples;Min_cycle;Max_cycle;Signal;HPM_P1;HPM_P2
2023/01/05 00:03:29;;;;;;;1.70;0.95;;;9.10;99.90;;;;;;10283073;23;20159;-78
2023/01/05 00:07:29;;;;;;;2.08;0.98;;;9.10;99.90;;;;;;10283425;23;20033;-77
2023/01/05 00:24:43;;;;;;;1.05;0.80;;;9.10;99.90;;;;;;10285589;23;20067;-78
2023/01/05 00:28:44;;;;;;;0.80;0.60;;;9.20;99.90;;;;;;10284753;23;20095;-78
2023/01/05 00:32:45;;;;;;;1.10;0.80;;;9.40;99.90;;;;;;10284095;23;19992;-79
2023/01/05 00:36:46;;;;;;;0.50;0.43;;;9.40;99.90;;;;;;10283701;23;20059;-78
2023/01/05 00:40:48;;;;;;;1.52;0.90;;;9.40;99.90;;;;;;10283811;23;20035;-78
2023/01/05 00:44:49;;;;;;;1.85;0.82;;;9.40;99.90;;;;;;10283645;23;20028;-77
2023/01/05 00:48:49;;;;;;;1.15;0.70;;;9.50;99.90;;;;;;10284060;23;20012;-78
2023/01/05 00:52:50;;;;;;;1.17;0.63;;;9.50;99.90;;;;;;10283408;23;20032;-78
2023/01/05 00:56:50;;;;;;;0.80;0.60;;;9.50;99.90;;;;;;10283465;23;20004;-78
2023/01/05 01:00:51;;;;;;;1.92;0.65;;;9.50;99.90;;;;;;10284787;23;20000;-77
2023/01/05 01:04:52;;;;;;;1.35;0.80;;;9.50;99.90;;;;;;10283997;23;20008;-78
2023/01/05 01:08:52;;;;;;;1.20;0.45;;;9.50;99.90;;;;;;10282800;23;20016;-78
2023/01/05 01:12:53;;;;;;;1.58;0.80;;;9.40;99.90;;;;;;10282898;23;20012;-78
2023/01/05 01:16:54;;;;;;;0.57;0.43;;;9.40;99.90;;;;;;10282362;23;20347;-78
2023/01/05 01:20:55;;;;;;;0.57;0.57;;;9.40;99.90;;;;;;10282622;23;20005;-78
2023/01/05 01:24:55;;;;;;;1.17;0.50;;;9.50;99.90;;;;;;10283712;23;20001;-78
2023/01/05 01:28:56;;;;;;;0.80;0.50;;;9.50;99.90;;;;;;10281808;23;20079;-79
2023/01/05 01:32:57;;;;;;;0.90;0.50;;;9.60;99.90;;;;;;10283626;23;20543;-79
2023/01/05 01:36:58;;;;;;;1.38;0.55;;;9.60;99.90;;;;;;10282089;23;20091;-78
2023/01/05 01:40:59;;;;;;;3.30;0.30;;;9.50;99.90;;;;;;10286356;23;20451;-79
2023/01/05 01:45:10;;;;;;;0.60;0.40;;;9.60;99.90;;;;;;10285970;23;20091;-77
2023/01/05 01:49:11;;;;;;;0.98;0.55;;;9.50;99.90;;;;;;10287590;23;20011;-78
2023/01/05 01:53:21;;;;;;;0.77;0.47;;;9.60;99.90;;;;;;10286164;23;20016;-77
2023/01/05 01:57:24;;;;;;;0.40;0.40;;;9.60;99.90;;;;;;10285305;23;20092;-77
2023/01/05 02:01:25;;;;;;;0.90;0.50;;;9.70;99.90;;;;;;10286082;23;20005;-79
2023/01/05 02:05:29;;;;;;;0.40;0.30;;;9.60;99.90;;;;;;10285945;23;20011;-80
2023/01/05 02:09:30;;;;;;;0.50;0.30;;;9.50;99.90;;;;;;10288361;23;20032;-79
2023/01/05 02:14:00;;;;;;;0.50;0.30;;;9.40;99.90;;;;;;10287073;23;20015;-79
2023/01/05 02:18:18;;;;;;;0.47;0.40;;;9.40;99.90;;;;;;10290609;23;20045;-80
2023/01/05 02:22:51;;;;;;;0.40;0.40;;;9.20;99.90;;;;;;10291149;23;20056;-79
2023/01/05 02:27:05;;;;;;;1.17;0.60;;;9.30;99.90;;;;;;10290384;23;20055;-79
2023/01/05 02:31:11;;;;;;;0.57;0.50;;;9.30;99.90;;;;;;10288786;23;20023;-79
2023/01/05 02:35:36;;;;;;;0.50;0.32;;;9.20;99.90;;;;;;10287460;23;20076;-79
2023/01/05 02:39:50;;;;;;;0.65;0.50;;;9.30;99.90;;;;;;10287143;23;20013;-79
2023/01/05 02:43:50;;;;;;;0.68;0.40;;;9.30;99.90;;;;;;10288651;23;20012;-79
2023/01/05 02:47:51;;;;;;;0.50;0.30;;;9.30;99.90;;;;;;10286809;23;20436;-78
2023/01/05 02:51:55;;;;;;;0.82;0.40;;;9.30;99.90;;;;;;10286410;23;20546;-79
2023/01/05 02:56:05;;;;;;;1.25;0.52;;;9.30;99.90;;;;;;10287886;23;20507;-79
2023/01/05 03:00:06;;;;;;;;;;;9.30;99.90;;;;;;10286622;23;20031;-78
2023/01/05 03:04:13;;;;;;;;;;;9.30;99.90;;;;;;10286457;23;19907;-78
2023/01/05 03:08:21;;;;;;;0.90;0.40;;;9.40;99.90;;;;;;10285376;23;20245;-78
2023/01/05 03:16:56;;;;;;;0.50;0.40;;;9.50;99.90;;;;;;10285823;23;20016;-78
2023/01/05 03:20:57;;;;;;;0.30;0.30;;;9.50;99.90;;;;;;10284308;23;20005;-78
2023/01/05 03:38:44;;;;;;;0.20;0.15;;;9.60;99.90;;;;;;10285204;23;20011;-78
2023/01/05 03:42:46;;;;;;;0.40;0.32;;;9.70;99.90;;;;;;10285258;23;20000;-78
2023/01/05 03:46:46;;;;;;;0.32;0.20;;;9.70;99.90;;;;;;10282497;23;20005;-78
2023/01/05 03:50:47;;;;;;;0.28;0.28;;;9.60;99.90;;;;;;10283541;23;20011;-78
2023/01/05 03:54:48;;;;;;;0.20;0.20;;;9.70;99.90;;;;;;10282554;23;20032;-78
2023/01/05 03:58:48;;;;;;;0.63;0.30;;;9.80;99.90;;;;;;10282752;23;20000;-78
2023/01/05 04:02:49;;;;;;;0.40;0.30;;;9.70;99.90;;;;;;10281338;23;20067;-77
2023/01/05 04:06:49;;;;;;;1.08;0.20;;;9.80;99.90;;;;;;10282980;23;20390;-79
2023/01/05 04:10:53;;;;;;;0.25;0.20;;;9.70;99.90;;;;;;10285328;23;20005;-78
2023/01/05 04:14:54;;;;;;;0.13;0.13;;;9.80;99.90;;;;;;10283978;23;19996;-78
2023/01/05 04:18:54;;;;;;;0.55;0.30;;;9.90;99.90;;;;;;10283674;23;20012;-77
2023/01/05 04:22:55;;;;;;;0.20;0.10;;;9.80;99.90;;;;;;10284761;23;20378;-79
2023/01/05 04:26:55;;;;;;;0.47;0.30;;;9.80;99.90;;;;;;10282061;23;20291;-77
2023/01/05 04:30:56;;;;;;;0.63;0.30;;;9.90;99.90;;;;;;10284512;23;20324;-77
2023/01/05 04:34:57;;;;;;;0.30;0.20;;;9.80;99.90;;;;;;10283445;23;20047;-79
2023/01/05 04:38:57;;;;;;;0.38;0.22;;;9.80;99.90;;;;;;10285828;23;20469;-78
2023/01/05 04:42:58;;;;;;;0.30;0.30;;;9.80;99.90;;;;;;10284101;23;20001;-79
2023/01/05 04:46:58;;;;;;;0.20;0.20;;;9.80;99.90;;;;;;10283009;23;20055;-78
2023/01/05 04:50:59;;;;;;;0.22;0.20;;;9.80;99.90;;;;;;10289817;22;20401;-82
2023/01/05 04:54:59;;;;;;;0.40;0.30;;;9.70;99.90;;;;;;10335402;22;20032;-82
2023/01/05 04:59:00;;;;;;;1.30;0.30;;;9.80;99.90;;;;;;10337700;22;20431;-81
2023/01/05 05:03:01;;;;;;;0.63;0.38;;;9.80;99.90;;;;;;10304191;23;20036;-81
2023/01/05 05:07:01;;;;;;;1.05;0.43;;;9.70;99.90;;;;;;10286756;23;20013;-82
2023/01/05 05:11:02;;;;;;;0.30;0.30;;;9.70;99.90;;;;;;10285071;23;20525;-82
2023/01/05 05:15:03;;;;;;;0.55;0.40;;;9.60;99.90;;;;;;10279133;23;20087;-81
2023/01/05 05:19:03;;;;;;;0.63;0.30;;;9.40;99.90;;;;;;10280263;23;20005;-81
2023/01/05 05:23:04;;;;;;;0.77;0.30;;;9.40;99.90;;;;;;10281275;23;20339;-81
2023/01/05 05:27:04;;;;;;;0.22;0.10;;;9.50;99.90;;;;;;10284351;23;20008;-81
2023/01/05 05:31:05;;;;;;;0.75;0.40;;;9.60;99.90;;;;;;10283118;23;20008;-81
2023/01/05 05:35:06;;;;;;;0.40;0.30;;;9.70;99.90;;;;;;10278898;23;20436;-81
2023/01/05 05:39:06;;;;;;;0.57;0.38;;;9.80;99.90;;;;;;10278617;23;20012;-81
2023/01/05 05:43:07;;;;;;;0.30;0.28;;;9.70;99.90;;;;;;10279044;23;20043;-81
2023/01/05 05:47:07;;;;;;;1.90;0.25;;;9.70;99.90;;;;;;10279204;23;20009;-81
2023/01/05 05:51:08;;;;;;;0.28;0.22;;;9.70;99.90;;;;;;10280688;23;20019;-80
2023/01/05 05:55:09;;;;;;;0.38;0.30;;;9.70;99.90;;;;;;10279031;23;20008;-81
2023/01/05 05:59:09;;;;;;;0.30;0.30;;;9.70;99.90;;;;;;10279295;23;20012;-82
2023/01/05 06:03:10;;;;;;;0.20;0.20;;;9.80;99.90;;;;;;10277845;23;20099;-81
2023/01/05 06:07:10;;;;;;;0.45;0.22;;;9.80;99.90;;;;;;10280459;23;20343;-81
2023/01/05 06:11:11;;;;;;;0.95;0.20;;;9.80;99.90;;;;;;10278974;23;20332;-81
2023/01/05 06:15:11;;;;;;;0.20;0.17;;;9.80;99.90;;;;;;10278662;23;20493;-81
2023/01/05 06:19:12;;;;;;;0.32;0.20;;;9.80;99.90;;;;;;10279076;23;20095;-81
2023/01/05 06:23:13;;;;;;;0.13;0.10;;;9.80;99.90;;;;;;10279271;23;20083;-81
2023/01/05 06:27:14;;;;;;;0.10;0.10;;;9.90;99.90;;;;;;10282117;23;20051;-82
2023/01/05 06:31:14;;;;;;;0.20;0.20;;;9.80;99.90;;;;;;10281782;23;20008;-81
2023/01/05 06:35:15;;;;;;;0.30;0.20;;;9.80;99.90;;;;;;10281644;23;20001;-81
2023/01/05 06:39:15;;;;;;;0.20;0.20;;;9.90;99.90;;;;;;10281334;23;20011;-81
2023/01/05 06:43:16;;;;;;;0.32;0.20;;;9.90;99.90;;;;;;10282359;23;20435;-81
2023/01/05 06:47:17;;;;;;;0.20;0.20;;;9.80;99.90;;;;;;10282362;23;20008;-81
2023/01/05 06:51:18;;;;;;;0.38;0.22;;;9.70;99.90;;;;;;10281816;23;20012;-81
2023/01/05 06:55:20;;;;;;;0.00;0.00;;;9.70;99.90;;;;;;10281912;23;20005;-81
2023/01/05 06:59:21;;;;;;;0.47;0.22;;;9.80;99.90;;;;;;10282085;23;20016;-81
2023/01/05 07:03:23;;;;;;;0.40;0.20;;;9.70;99.90;;;;;;10282756;23;20000;-81
2023/01/05 07:07:23;;;;;;;0.30;0.20;;;9.70;99.90;;;;;;10280528;23;20020;-82
2023/01/05 07:11:24;;;;;;;0.30;0.10;;;9.60;99.90;;;;;;10282724;23;20001;-81
2023/01/05 07:15:24;;;;;;;0.00;0.00;;;9.60;99.90;;;;;;10282509;23;20005;-82
2023/01/05 07:19:25;;;;;;;0.10;0.10;;;9.70;99.90;;;;;;10282350;23;20487;-82
2023/01/05 07:23:26;;;;;;;0.10;0.10;;;9.60;99.90;;;;;;10280703;23;20015;-82
2023/01/05 07:27:26;;;;;;;0.20;0.15;;;9.70;99.90;;;;;;10280983;23;20020;-82
2023/01/05 07:31:27;;;;;;;0.00;0.00;;;9.80;99.90;;;;;;10282411;23;20021;-81
2023/01/05 07:35:28;;;;;;;0.00;0.00;;;9.70;99.90;;;;;;10278910;23;20784;-82
2023/01/05 07:39:28;;;;;;;0.22;0.20;;;9.90;99.90;;;;;;10280425;23;20019;-81
2023/01/05 07:43:29;;;;;;;0.17;0.10;;;10.00;99.90;;;;;;10280623;23;20351;-82
2023/01/05 07:47:30;;;;;;;0.10;0.10;;;10.00;99.90;;;;;;10283623;23;20012;-82
2023/01/05 07:51:30;;;;;;;0.25;0.10;;;10.00;99.90;;;;;;10282038;23;20059;-80
2023/01/05 07:55:31;;;;;;;0.20;0.13;;;9.90;99.90;;;;;;10285495;23;20005;-81
2023/01/05 07:59:31;;;;;;;0.00;0.00;;;9.80;99.90;;;;;;10286998;23;20478;-81
2023/01/05 08:03:32;;;;;;;0.25;0.10;;;9.80;99.90;;;;;;10283635;23;20099;-81
2023/01/05 08:07:34;;;;;;;0.40;0.10;;;9.70;99.90;;;;;;10282891;23;20501;-81
2023/01/05 08:11:34;;;;;;;1.35;0.10;;;9.50;99.90;;;;;;10281597;23;20434;-81
2023/01/05 08:15:35;;;;;;;0.22;0.10;;;9.50;99.90;;;;;;10280246;23;20005;-86
2023/01/05 08:19:35;;;;;;;0.22;0.20;;;9.50;99.90;;;;;;10279730;23;20060;-85
2023/01/05 08:23:37;;;;;;;0.10;0.10;;;9.70;99.90;;;;;;10279069;23;20020;-85
2023/01/05 08:27:37;;;;;;;0.40;0.20;;;9.70;99.90;;;;;;10279996;23;20442;-86
2023/01/05 08:31:38;;;;;;;0.65;0.50;;;9.70;99.90;;;;;;10279618;23;20031;-85
2023/01/05 08:35:41;;;;;;;0.30;0.28;;;9.80;99.90;;;;;;10280879;23;19996;-85
2023/01/05 08:39:41;;;;;;;0.25;0.20;;;9.90;99.90;;;;;;10278982;23;20088;-85
2023/01/05 08:43:42;;;;;;;0.20;0.20;;;9.90;99.90;;;;;;10281364;23;20328;-88
2023/01/05 08:47:43;;;;;;;0.10;0.10;;;9.90;99.90;;;;;;10280181;23;20005;-87
2023/01/05 08:51:44;;;;;;;0.38;0.30;;;10.00;99.90;;;;;;10279943;23;20466;-88
2023/01/05 08:55:44;;;;;;;0.30;0.30;;;10.00;99.90;;;;;;10278370;23;20000;-87
2023/01/05 08:59:45;;;;;;;0.30;0.20;;;10.00;99.90;;;;;;10281389;23;20009;-85
2023/01/05 09:03:45;;;;;;;0.85;0.35;;;10.20;99.90;;;;;;10283309;23;20005;-85
2023/01/05 09:07:46;;;;;;;0.20;0.10;;;10.30;99.90;;;;;;10281946;23;20103;-84
2023/01/05 09:11:46;;;;;;;1.27;0.30;;;10.20;99.90;;;;;;10279065;23;20063;-86
2023/01/05 09:15:47;;;;;;;0.20;0.10;;;10.20;99.90;;;;;;10278719;23;20131;-84
2023/01/05 09:19:50;;;;;;;0.90;0.20;;;10.00;99.90;;;;;;10280926;23;20387;-84
2023/01/05 09:23:51;;;;;;;0.30;0.20;;;9.90;99.90;;;;;;10282348;23;20091;-85
2023/01/05 09:27:51;;;;;;;0.30;0.20;;;9.80;99.90;;;;;;10281273;23;20012;-83
2023/01/05 09:31:52;;;;;;;0.15;0.10;;;9.70;99.90;;;;;;10279209;23;20457;-84
2023/01/05 09:35:54;;;;;;;0.25;0.20;;;9.80;99.90;;;;;;10281662;23;20031;-84
2023/01/05 09:39:54;;;;;;;0.22;0.10;;;9.80;99.90;;;;;;10279897;23;20439;-84
2023/01/05 09:44:03;;;;;;;0.50;0.28;;;9.80;99.90;;;;;;10278978;23;20100;-84
2023/01/05 09:48:04;;;;;;;0.55;0.20;;;9.80;99.90;;;;;;10282189;23;20001;-84
2023/01/05 09:52:09;;;;;;;0.30;0.30;;;9.80;99.90;;;;;;10284639;23;20506;-84
2023/01/05 09:56:36;;;;;;;0.40;0.30;;;9.90;99.90;;;;;;10281683;23;20024;-82
2023/01/05 10:00:42;;;;;;;0.30;0.20;;;9.80;99.90;;;;;;10282922;23;20410;-84
2023/01/05 10:04:43;;;;;;;0.52;0.20;;;9.90;99.90;;;;;;10282764;23;20013;-83
2023/01/05 10:08:48;;;;;;;0.40;0.35;;;10.20;99.90;;;;;;10281663;23;20063;-84
2023/01/05 10:13:04;;;;;;;0.40;0.30;;;10.20;99.90;;;;;;10283511;23;20001;-82
2023/01/05 10:17:17;;;;;;;0.57;0.50;;;10.30;99.90;;;;;;10284879;23;20008;-82
2023/01/05 10:21:44;;;;;;;0.52;0.43;;;10.40;99.90;;;;;;10285082;23;20004;-82
2023/01/05 10:26:02;;;;;;;0.20;0.20;;;10.60;99.90;;;;;;10285608;23;20063;-83
2023/01/05 10:30:06;;;;;;;0.57;0.38;;;10.50;99.90;;;;;;10283468;23;20435;-83
2023/01/05 10:34:19;;;;;;;0.40;0.30;;;10.50;99.90;;;;;;10283794;23;20005;-82
2023/01/05 10:38:34;;;;;;;0.50;0.40;;;10.50;99.90;;;;;;10285633;23;19996;-84
2023/01/05 10:43:13;;;;;;;0.10;0.10;;;10.50;99.90;;;;;;10285775;23;20062;-83
2023/01/05 10:47:14;;;;;;;0.22;0.20;;;10.70;99.90;;;;;;10281997;23;20009;-84
2023/01/05 10:51:14;;;;;;;0.40;0.30;;;10.80;99.90;;;;;;10283740;23;20012;-84
2023/01/05 10:55:17;;;;;;;0.28;0.20;;;11.30;99.90;;;;;;10281269;23;20009;-84
2023/01/05 10:59:18;;;;;;;0.20;0.20;;;11.30;99.90;;;;;;10281722;23;20011;-85
2023/01/05 11:03:26;;;;;;;0.35;0.30;;;11.60;99.90;;;;;;10281244;23;20027;-85
2023/01/05 11:07:26;;;;;;;0.20;0.20;;;11.60;99.90;;;;;;10280241;23;20099;-85
2023/01/05 11:11:27;;;;;;;0.22;0.15;;;11.70;99.90;;;;;;10281694;23;20035;-85
2023/01/05 11:15:32;;;;;;;0.20;0.20;;;11.40;99.90;;;;;;10282704;23;20384;-85
2023/01/05 11:19:43;;;;;;;0.20;0.20;;;11.20;99.90;;;;;;10283095;23;20032;-84
2023/01/05 11:23:45;;;;;;;;;;;11.00;99.90;;;;;;10282703;23;20005;-84
2023/01/05 11:27:45;;;;;;;0.30;0.30;;;10.90;99.90;;;;;;10284449;23;20567;-84
2023/01/05 11:32:02;;;;;;;0.10;0.10;;;11.00;99.90;;;;;;10283833;23;20012;-82
2023/01/05 11:36:03;;;;;;;0.57;0.40;;;10.90;99.90;;;;;;10282006;23;20386;-80
2023/01/05 11:40:04;;;;;;;0.30;0.30;;;10.90;99.90;;;;;;10283426;23;20317;-81
2023/01/05 11:44:05;;;;;;;0.40;0.20;;;11.10;99.90;;;;;;10275803;23;20335;-82
2023/01/05 11:48:07;;;;;;;0.10;0.10;;;11.20;99.90;;;;;;10282197;23;20040;-82
2023/01/05 11:52:33;;;;;;;0.20;0.13;;;11.20;99.90;;;;;;10283999;23;20394;-81
2023/01/05 11:56:34;;;;;;;0.60;0.30;;;11.20;99.90;;;;;;10286327;23;20004;-82
2023/01/05 12:00:52;;;;;;;0.20;0.20;;;11.40;99.90;;;;;;10280694;23;20016;-84
2023/01/05 12:05:03;;;;;;;0.45;0.22;;;11.90;99.90;;;;;;10282646;23;20084;-84
2023/01/05 12:09:29;;;;;;;0.20;0.15;;;12.80;99.90;;;;;;10281110;23;20008;-84
2023/01/05 12:13:58;;;;;;;0.32;0.22;;;13.20;99.90;;;;;;10281093;23;20040;-84
2023/01/05 12:18:18;;;;;;;0.15;0.15;;;12.70;99.90;;;;;;10279614;23;20034;-86
2023/01/05 12:23:01;;;;;;;0.80;0.23;;;12.40;99.90;;;;;;10280613;23;20083;-85
2023/01/05 12:27:39;;;;;;;1.55;0.60;;;12.20;99.90;;;;;;10235095;23;20407;-84
2023/01/05 12:32:41;;;;;;;0.52;0.45;;;12.00;99.90;;;;;;10279443;23;20008;-85
2023/01/05 12:37:10;;;;;;;1.02;0.40;;;11.90;99.90;;;;;;10054644;23;20097;-86
2023/01/05 12:41:57;;;;;;;1.38;0.50;;;11.80;99.90;;;;;;10200923;23;20208;-86
2023/01/05 12:46:34;;;;;;;2.40;0.45;;;11.80;99.90;;;;;;10055371;23;20018;-86
2023/01/05 12:50:44;;;;;;;0.90;0.40;;;11.70;99.90;;;;;;10192739;23;20020;-87
2023/01/05 12:54:52;;;;;;;4.20;0.65;;;11.60;99.90;;;;;;10279213;23;20004;-86
2023/01/05 12:59:14;;;;;;;1.38;0.50;;;11.60;99.90;;;;;;10283359;23;20088;-86
2023/01/05 13:03:39;;;;;;;1.67;0.50;;;11.70;99.90;;;;;;10276433;23;20005;-86
2023/01/05 13:08:17;;;;;;;3.55;0.50;;;11.60;99.90;;;;;;10279749;23;20047;-86
2023/01/05 13:12:18;;;;;;;3.55;0.60;;;11.60;99.90;;;;;;10255509;23;20012;-86
2023/01/05 13:16:40;;;;;;;0.90;0.40;;;11.60;99.90;;;;;;10279635;23;20005;-86
2023/01/05 13:20:44;;;;;;;2.97;0.43;;;11.60;99.90;;;;;;10279081;23;20012;-86
2023/01/05 13:25:26;;;;;;;1.05;0.45;;;11.50;99.90;;;;;;10278041;23;20095;-87
2023/01/05 13:29:39;;;;;;;1.98;0.45;;;11.50;99.90;;;;;;10278155;23;20036;-86
2023/01/05 13:34:17;;;;;;;3.20;0.50;;;11.30;99.90;;;;;;10280693;23;20001;-87
2023/01/05 13:38:48;;;;;;;3.13;0.43;;;11.10;99.90;;;;;;10283775;23;20092;-85
2023/01/05 13:42:54;;;;;;;0.90;0.50;;;11.10;99.90;;;;;;10283988;23;20008;-84
2023/01/05 13:47:00;;;;;;;0.77;0.22;;;11.20;99.90;;;;;;10283569;23;19996;-86
2023/01/05 13:51:31;;;;;;;2.10;0.30;;;11.30;99.90;;;;;;10284165;23;20048;-86
2023/01/05 13:55:37;;;;;;;1.10;0.43;;;11.30;99.90;;;;;;10284608;23;20099;-85
2023/01/05 13:59:38;;;;;;;6.15;0.50;;;11.30;99.90;;;;;;10285476;23;20690;-86
2023/01/05 14:03:45;;;;;;;2.83;0.40;;;11.20;99.90;;;;;;10283176;23;20073;-85
2023/01/05 14:07:45;;;;;;;2.60;0.40;;;11.20;99.90;;;;;;10283403;23;20335;-85
2023/01/05 14:12:14;;;;;;;3.40;0.45;;;11.20;99.90;;;;;;10283378;23;20015;-85
2023/01/05 14:16:36;;;;;;;1.23;0.50;;;11.40;99.90;;;;;;10280783;23;20447;-85
2023/01/05 14:20:48;;;;;;;0.47;0.30;;;11.30;99.90;;;;;;10279879;23;20005;-85
2023/01/05 14:24:51;;;;;;;1.58;0.30;;;11.40;99.90;;;;;;10282311;23;20092;-85
2023/01/05 14:28:54;;;;;;;0.32;0.20;;;11.40;99.90;;;;;;10286229;23;20435;-86
2023/01/05 14:33:02;;;;;;;0.80;0.40;;;11.30;99.90;;;;;;10283952;23;20024;-86
2023/01/05 14:37:05;;;;;;;3.60;0.40;;;11.20;99.90;;;;;;10282449;23;20005;-86
2023/01/05 14:41:14;;;;;;;1.85;0.30;;;11.20;99.90;;;;;;10283466;23;20012;-86
2023/01/05 14:45:39;;;;;;;1.30;0.38;;;11.30;99.90;;;;;;10280878;23;20016;-85
2023/01/05 14:49:54;;;;;;;1.70;0.50;;;11.10;99.90;;;;;;10282264;23;20012;-87
2023/01/05 14:54:01;;;;;;;0.80;0.40;;;11.20;99.90;;;;;;10281744;23;20513;-86
2023/01/05 14:58:05;;;;;;;1.05;0.45;;;11.10;99.90;;;;;;10280971;23;20427;-86
2023/01/05 15:02:21;;;;;;;0.88;0.57;;;11.10;99.90;;;;;;10281834;23;20447;-86
2023/01/05 15:06:56;;;;;;;0.77;0.40;;;11.20;99.90;;;;;;10284351;23;20515;-86
2023/01/05 15:11:05;;;;;;;0.82;0.50;;;11.00;99.90;;;;;;10285132;23;20011;-85
2023/01/05 15:15:23;;;;;;;0.53;0.27;;;10.80;99.90;;;;;;10285459;23;20024;-86
2023/01/05 15:19:41;;;;;;;0.55;0.40;;;10.80;99.90;;;;;;10285305;23;20591;-86
2023/01/05 15:24:06;;;;;;;2.20;0.52;;;10.50;99.90;;;;;;10285159;23;20043;-85
2023/01/05 15:28:30;;;;;;;1.23;0.70;;;10.40;99.90;;;;;;10286059;23;20470;-85
2023/01/05 15:32:39;;;;;;;3.03;1.13;;;10.30;99.90;;;;;;10284403;23;20032;-85
2023/01/05 15:36:49;;;;;;;0.80;0.43;;;10.30;99.90;;;;;;10283456;23;20438;-85
2023/01/05 15:40:59;;;;;;;0.28;0.28;;;10.20;99.90;;;;;;10287107;23;20013;-84
2023/01/05 15:45:00;;;;;;;0.85;0.52;;;10.30;99.90;;;;;;10285199;23;20004;-85
2023/01/05 15:49:00;;;;;;;0.30;0.25;;;10.20;99.90;;;;;;10284001;23;20175;-85
2023/01/05 15:53:01;;;;;;;0.43;0.35;;;10.00;99.90;;;;;;10283294;23;20435;-85
2023/01/05 15:57:02;;;;;;;0.80;0.57;;;10.00;99.90;;;;;;10282212;23;20303;-85
2023/01/05 16:01:11;;;;;;;3.10;1.98;;;9.90;99.90;;;;;;10283426;23;20005;-85
2023/01/05 16:05:20;;;;;;;0.85;0.60;;;9.90;99.90;;;;;;10282134;23;20005;-85
2023/01/05 16:09:23;;;;;;;1.55;0.50;;;9.90;99.90;;;;;;10282775;23;20087;-86
2023/01/05 16:13:29;;;;;;;0.65;0.52;;;9.90;99.90;;;;;;10280262;23;20014;-86
2023/01/05 16:17:36;;;;;;;3.03;0.55;;;9.90;99.90;;;;;;10281663;23;20001;-86
2023/01/05 16:21:51;;;;;;;0.80;0.60;;;9.80;99.90;;;;;;10282851;23;20016;-86
2023/01/05 16:25:57;;;;;;;0.40;0.40;;;9.90;99.90;;;;;;10281731;23;20033;-86
2023/01/05 16:30:12;;;;;;;1.20;0.68;;;10.00;99.90;;;;;;10283780;23;20020;-81
2023/01/05 16:34:19;;;;;;;0.60;0.50;;;10.00;99.90;;;;;;10288681;23;20067;-82
2023/01/05 16:38:26;;;;;;;0.70;0.70;;;10.00;99.90;;;;;;10284674;23;20008;-81
2023/01/05 16:42:39;;;;;;;0.77;0.70;;;9.70;99.90;;;;;;10285857;23;20004;-81
2023/01/05 16:46:40;;;;;;;0.57;0.40;;;9.90;99.90;;;;;;10285155;23;20063;-81
2023/01/05 16:51:04;;;;;;;0.60;0.47;;;9.90;99.90;;;;;;10286070;23;20013;-81
2023/01/05 16:55:37;;;;;;;0.98;0.57;;;9.90;99.90;;;;;;10286146;23;20030;-81
2023/01/05 16:59:51;;;;;;;1.17;0.63;;;10.00;99.90;;;;;;10287940;23;20054;-82
2023/01/05 17:03:53;;;;;;;2.60;0.60;;;10.00;99.90;;;;;;10292865;22;20015;-81
2023/01/05 17:08:21;;;;;;;0.85;0.50;;;10.00;99.90;;;;;;10335010;23;20009;-81
2023/01/05 17:12:21;;;;;;;0.55;0.52;;;10.00;99.90;;;;;;10333656;23;20008;-79
2023/01/05 17:16:22;;;;;;;0.50;0.50;;;9.90;99.90;;;;;;10299499;23;20015;-79
2023/01/05 17:20:28;;;;;;;1.75;0.50;;;9.90;99.90;;;;;;10285149;23;20004;-79
2023/01/05 17:24:28;;;;;;;10.75;4.78;;;10.00;99.90;;;;;;10285253;23;20080;-81
2023/01/05 17:28:29;;;;;;;1.30;1.00;;;10.00;99.90;;;;;;10283899;23;20357;-80
2023/01/05 17:32:29;;;;;;;1.30;0.82;;;10.00;99.90;;;;;;10283305;23;20103;-80
2023/01/05 17:36:32;;;;;;;1.20;0.80;;;10.10;99.90;;;;;;10284305;23;20387;-80
2023/01/05 17:40:33;;;;;;;0.52;0.50;;;10.00;99.90;;;;;;10282386;23;20012;-80
2023/01/05 17:44:33;;;;;;;0.65;0.50;;;10.00;99.90;;;;;;10283267;23;20419;-79
2023/01/05 17:48:34;;;;;;;1.05;0.70;;;10.10;99.90;;;;;;10284656;23;20004;-80
2023/01/05 17:52:34;;;;;;;0.90;0.45;;;10.10;99.90;;;;;;10283709;23;20000;-80
2023/01/05 17:56:35;;;;;;;0.60;0.57;;;10.00;99.90;;;;;;10279963;23;19997;-79
2023/01/05 18:00:43;;;;;;;0.85;0.50;;;10.00;99.90;;;;;;10282735;23;20010;-79
2023/01/05 18:04:44;;;;;;;0.80;0.60;;;10.10;99.90;;;;;;10281693;23;20043;-79
2023/01/05 18:08:44;;;;;;;0.70;0.60;;;9.80;99.90;;;;;;10280059;23;20011;-79
2023/01/05 18:12:45;;;;;;;1.00;0.80;;;9.70;99.90;;;;;;10281719;23;20032;-78
2023/01/05 18:16:46;;;;;;;1.63;0.68;;;9.50;99.90;;;;;;10281556;23;20000;-79
2023/01/05 18:20:49;;;;;;;1.00;0.90;;;9.40;99.90;;;;;;10282046;23;20009;-79
2023/01/05 18:24:49;;;;;;;0.75;0.70;;;9.40;99.90;;;;;;10283548;23;20005;-79
2023/01/05 18:28:52;;;;;;;1.65;0.80;;;9.40;99.90;;;;;;10285658;23;20005;-79
2023/01/05 18:32:53;;;;;;;1.08;0.82;;;9.50;99.90;;;;;;10283673;23;20004;-78
2023/01/05 18:36:54;;;;;;;0.88;0.75;;;9.20;99.90;;;;;;10283844;23;20001;-79
2023/01/05 18:40:54;;;;;;;1.20;0.80;;;9.30;99.90;;;;;;10285876;23;20007;-79
2023/01/05 18:44:55;;;;;;;1.55;0.80;;;9.20;99.90;;;;;;10283832;23;20054;-79
2023/01/05 18:48:55;;;;;;;1.05;0.75;;;9.20;99.90;;;;;;10284543;23;19997;-78
2023/01/05 18:52:56;;;;;;;4.43;2.63;;;9.30;99.90;;;;;;10282694;23;20117;-79
2023/01/05 18:56:56;;;;;;;1.63;1.10;;;9.20;99.90;;;;;;10282278;23;20009;-79
2023/01/05 19:00:57;;;;;;;4.90;2.80;;;9.00;99.90;;;;;;10282655;23;20017;-79
2023/01/05 19:04:57;;;;;;;1.00;0.90;;;9.00;99.90;;;;;;10282921;23;20023;-79
2023/01/05 19:09:02;;;;;;;0.95;0.70;;;8.90;99.90;;;;;;10284996;23;20001;-78
2023/01/05 19:13:02;;;;;;;1.00;0.75;;;8.90;99.90;;;;;;10283420;23;20016;-79
2023/01/05 19:17:03;;;;;;;1.45;0.80;;;8.90;99.90;;;;;;10284291;23;20001;-78
2023/01/05 19:21:04;;;;;;;1.10;0.90;;;8.70;99.90;;;;;;10283786;23;20001;-79
2023/01/05 19:25:05;;;;;;;0.77;0.70;;;8.50;99.90;;;;;;10281993;23;20012;-79
2023/01/05 19:29:06;;;;;;;1.48;0.77;;;8.40;99.90;;;;;;10283906;23;20428;-79
2023/01/05 19:33:06;;;;;;;1.63;0.70;;;8.30;99.90;;;;;;10282229;23;20046;-79
2023/01/05 19:37:07;;;;;;;2.63;1.30;;;8.20;99.90;;;;;;10283462;23;20004;-79
2023/01/05 19:41:16;;;;;;;1.65;1.10;;;8.20;99.90;;;;;;10282221;23;20100;-78
2023/01/05 19:45:17;;;;;;;1.37;1.00;;;8.20;99.90;;;;;;10284184;23;20047;-79
2023/01/05 19:49:23;;;;;;;1.38;1.08;;;8.10;99.90;;;;;;10283365;23;20008;-79
2023/01/05 19:53:24;;;;;;;1.83;1.48;;;8.40;99.90;;;;;;10284358;23;19997;-79
2023/01/05 19:57:27;;;;;;;1.42;1.00;;;8.30;99.90;;;;;;10283207;23;20008;-79
2023/01/05 20:01:29;;;;;;;1.05;0.80;;;8.30;99.90;;;;;;10284035;23;20720;-79
2023/01/05 20:05:30;;;;;;;1.08;0.85;;;8.40;99.90;;;;;;10283765;23;20124;-79
2023/01/05 20:09:31;;;;;;;1.42;0.70;;;8.50;99.90;;;;;;10282718;23;19997;-78
2023/01/05 20:13:31;;;;;;;0.77;0.60;;;8.80;99.90;;;;;;10282447;23;20099;-79
2023/01/05 20:17:32;;;;;;;1.58;0.98;;;8.90;99.90;;;;;;10282455;23;20107;-79
2023/01/05 20:21:33;;;;;;;1.20;1.00;;;8.90;99.90;;;;;;10283694;23;20027;-79
2023/01/05 20:25:34;;;;;;;1.38;1.05;;;9.10;99.90;;;;;;10283780;23;20001;-79
2023/01/05 20:29:35;;;;;;;2.55;1.77;;;9.10;99.90;;;;;;10284262;23;20005;-79
2023/01/05 20:33:36;;;;;;;1.60;1.30;;;9.10;99.90;;;;;;10282250;23;20005;-79
2023/01/05 20:37:37;;;;;;;1.50;1.20;;;9.10;99.90;;;;;;10283597;23;20355;-80
2023/01/05 20:41:40;;;;;;;1.67;1.40;;;9.10;99.90;;;;;;10282149;23;20008;-79
2023/01/05 20:45:40;;;;;;;1.38;0.98;;;9.20;99.90;;;;;;10282033;23;20056;-80
2023/01/05 20:49:46;;;;;;;1.17;1.00;;;9.20;99.90;;;;;;10282709;23;20047;-79
2023/01/05 20:53:47;;;;;;;1.30;1.05;;;9.40;99.90;;;;;;10281911;23;20000;-79
2023/01/05 20:57:49;;;;;;;1.45;1.20;;;9.40;99.90;;;;;;10283771;23;20474;-79
2023/01/05 21:01:50;;;;;;;1.35;1.00;;;9.40;99.90;;;;;;10282206;23;20013;-78
2023/01/05 21:05:51;;;;;;;2.25;1.25;;;9.20;99.90;;;;;;10281069;23;20013;-79
2023/01/05 21:09:52;;;;;;;2.22;1.40;;;9.10;99.90;;;;;;10283577;23;20022;-80
2023/01/05 21:13:55;;;;;;;1.70;1.23;;;9.10;99.90;;;;;;10280653;23;20071;-79
2023/01/05 21:17:55;;;;;;;1.92;1.27;;;9.10;99.90;;;;;;10282123;23;20419;-79
2023/01/05 21:21:56;;;;;;;1.85;1.45;;;9.10;99.90;;;;;;10281009;23;20012;-80
2023/01/05 21:25:57;;;;;;;2.03;1.60;;;9.10;99.90;;;;;;10281805;23;20013;-79
2023/01/05 21:29:57;;;;;;;1.20;1.00;;;9.10;99.90;;;;;;10283556;23;20009;-79
2023/01/05 21:33:58;;;;;;;1.55;1.30;;;9.10;99.90;;;;;;10281499;23;20013;-80
2023/01/05 21:37:59;;;;;;;1.70;1.33;;;9.10;99.90;;;;;;10281679;23;20051;-79
2023/01/05 21:46:18;;;;;;;1.65;1.13;;;9.20;99.90;;;;;;10283857;23;20020;-79
2023/01/05 21:58:58;;;;;;;1.40;1.13;;;9.00;99.90;;;;;;10287130;23;20011;-79